Time;durP1;ratioP1;P1;durP2;ratioP2;P2;SDS_P1;SDS_P2;PMS_P1;PMS_P2;Temp;Humidity;BMP_temperature;BMP_pressure;BME280_temperature;BME280_humidity;BME280_pressure;Samples;Min_cycle;Max_cycle;Signal;HPM_P1;HPM_P2
2023/07/11 00:02:25;;;;;;;3.13;0.82;;;16.80;99.90;;;;;;5044848;28;20051;-74
2023/07/11 00:04:51;;;;;;;4.40;0.93;;;;;;;;;;5041814;28;20033;-73
2023/07/11 00:07:17;;;;;;;4.20;1.02;;;;;;;;;;5044084;28;20048;-74
2023/07/11 00:09:49;;;;;;;3.10;1.25;;;16.80;99.90;;;;;;5061286;28;20056;-74
2023/07/11 00:12:16;;;;;;;3.58;1.50;;;16.90;99.90;;;;;;5066137;28;20054;-74
2023/07/11 00:14:42;;;;;;;3.60;1.75;;;16.80;99.90;;;;;;5041856;28;20481;-74
2023/07/11 00:17:08;;;;;;;5.65;0.95;;;;;;;;;;5039514;28;20124;-74
2023/07/11 00:19:50;;;;;;;4.72;1.20;;;16.80;99.90;;;;;;5038979;28;20083;-74
2023/07/11 00:22:16;;;;;;;7.95;1.30;;;16.90;99.90;;;;;;5036543;28;20574;-74
2023/07/11 00:24:42;;;;;;;5.03;1.40;;;16.70;99.90;;;;;;5039439;28;20032;-74
2023/07/11 00:27:09;;;;;;;7.05;1.40;;;16.80;99.90;;;;;;5066428;28;20142;-74
2023/07/11 00:29:35;;;;;;;5.63;1.33;;;;;;;;;;5041298;28;20523;-74
2023/07/11 00:32:01;;;;;;;4.53;1.48;;;;;;;;;;5062790;28;20139;-74
2023/07/11 00:34:27;;;;;;;2.60;1.10;;;;;;;;;;5063584;28;20403;-74
2023/07/11 00:36:53;;;;;;;2.10;0.98;;;16.80;99.90;;;;;;5038480;28;20037;-74
2023/07/11 00:39:19;;;;;;;3.25;1.58;;;;;;;;;;5057810;28;20052;-74
2023/07/11 00:41:45;;;;;;;3.88;1.02;;;;;;;;;;5042923;28;20048;-74
2023/07/11 00:44:13;;;;;;;3.45;1.20;;;16.40;99.90;;;;;;5045581;28;20042;-74
2023/07/11 00:46:40;;;;;;;3.47;1.60;;;16.60;99.90;;;;;;5043686;28;20052;-74
2023/07/11 00:49:08;;;;;;;5.60;1.73;;;16.80;99.90;;;;;;5063230;28;20048;-74
2023/07/11 00:51:41;;;;;;;4.85;1.60;;;16.50;99.90;;;;;;5040378;28;20059;-74
2023/07/11 00:54:12;;;;;;;5.93;1.15;;;16.50;99.90;;;;;;5034682;28;20049;-74
2023/07/11 00:56:44;;;;;;;3.97;1.58;;;16.40;99.90;;;;;;5057091;28;20037;-74
2023/07/11 00:59:10;;;;;;;4.88;1.50;;;;;;;;;;5037865;28;20045;-74
2023/07/11 01:01:36;;;;;;;3.97;1.63;;;16.80;99.90;;;;;;5033612;28;20865;-74
2023/07/11 01:04:05;;;;;;;4.15;2.08;;;16.40;99.90;;;;;;5059779;28;20678;-74
2023/07/11 01:06:32;;;;;;;7.22;1.70;;;16.50;99.90;;;;;;5063923;28;20075;-74
2023/07/11 01:08:59;;;;;;;5.40;1.70;;;16.10;99.90;;;;;;5059310;28;20040;-74
2023/07/11 01:11:29;;;;;;;8.27;1.80;;;16.40;99.90;;;;;;5062725;28;20505;-74
2023/07/11 01:13:55;;;;;;;6.00;1.70;;;;;;;;;;5062329;28;20123;-74
2023/07/11 01:16:21;;;;;;;4.95;1.83;;;;;;;;;;5043266;28;20124;-74
2023/07/11 01:18:48;;;;;;;6.65;2.08;;;;;;;;;;5044353;28;20123;-74
2023/07/11 01:21:21;;;;;;;4.45;1.75;;;16.40;99.90;;;;;;5043063;28;20044;-74
2023/07/11 01:23:47;;;;;;;7.50;1.98;;;;;;;;;;5043444;28;20044;-74
2023/07/11 01:26:13;;;;;;;5.25;1.67;;;16.30;99.90;;;;;;5053432;28;20102;-74
2023/07/11 01:28:40;;;;;;;5.32;1.30;;;16.20;99.90;;;;;;5043486;28;20552;-74
2023/07/11 01:31:06;;;;;;;4.13;1.92;;;16.40;99.90;;;;;;5046233;28;20075;-74
2023/07/11 01:33:33;;;;;;;5.88;1.45;;;16.20;99.90;;;;;;5037618;28;20121;-74
2023/07/11 01:35:58;;;;;;;5.85;1.92;;;16.30;99.90;;;;;;5041470;28;20064;-74
2023/07/11 01:38:24;;;;;;;7.88;1.88;;;16.30;99.90;;;;;;5060928;28;20473;-74
2023/07/11 01:40:50;;;;;;;4.63;2.15;;;16.10;99.90;;;;;;5041673;28;20048;-74
2023/07/11 01:43:18;;;;;;;6.13;2.40;;;16.10;99.90;;;;;;5041913;28;20047;-74
2023/07/11 01:45:44;;;;;;;2.78;1.70;;;16.10;99.90;;;;;;5062200;28;20051;-74
2023/07/11 01:48:10;;;;;;;4.13;1.63;;;;;;;;;;5052053;28;20044;-74
2023/07/11 01:50:36;;;;;;;5.38;2.22;;;;;;;;;;5061653;28;20040;-74
2023/07/11 01:53:01;;;;;;;3.83;1.63;;;15.80;99.90;;;;;;5033200;28;20067;-74
2023/07/11 01:55:27;;;;;;;8.57;2.42;;;;;;;;;;5057284;28;20781;-74
2023/07/11 01:57:53;;;;;;;6.07;2.00;;;;;;;;;;5052912;28;20044;-74
2023/07/11 02:00:19;;;;;;;4.32;1.58;;;15.60;99.90;;;;;;5042855;28;20043;-74
2023/07/11 02:02:46;;;;;;;8.23;1.60;;;;;;;;;;5043771;28;20526;-74
2023/07/11 02:05:14;;;;;;;8.13;2.25;;;15.70;99.90;;;;;;5064724;28;20093;-74
2023/07/11 02:07:41;;;;;;;4.47;2.08;;;;;;;;;;5043687;28;20055;-74
2023/07/11 02:10:07;;;;;;;4.18;1.83;;;15.60;99.90;;;;;;5057973;28;20041;-74
2023/07/11 02:12:34;;;;;;;4.25;2.28;;;;;;;;;;5055210;28;20049;-74
2023/07/11 02:14:59;;;;;;;3.10;1.65;;;15.50;99.90;;;;;;5033316;28;20052;-74
2023/07/11 02:17:25;;;;;;;8.27;2.33;;;;;;;;;;5057006;28;20044;-74
2023/07/11 02:19:51;;;;;;;4.35;1.75;;;;;;;;;;5062839;28;20521;-74
2023/07/11 02:22:17;;;;;;;6.22;2.08;;;;;;;;;;5028878;28;20127;-74
2023/07/11 02:24:43;;;;;;;7.47;2.10;;;;;;;;;;5039668;28;20045;-74
2023/07/11 02:27:09;;;;;;;4.88;1.90;;;;;;;;;;5044432;28;20044;-74
2023/07/11 02:29:35;;;;;;;6.05;2.08;;;;;;;;;;5042156;28;20059;-74
2023/07/11 02:32:01;;;;;;;3.45;1.65;;;;;;;;;;5036909;28;20036;-74
2023/07/11 02:34:27;;;;;;;5.28;1.85;;;15.70;99.90;;;;;;5035211;28;20045;-74
2023/07/11 02:36:53;;;;;;;3.97;1.52;;;15.70;99.90;;;;;;5037257;28;20049;-74
2023/07/11 02:39:19;;;;;;;5.65;2.05;;;;;;;;;;5045148;28;20071;-74
2023/07/11 02:41:45;;;;;;;6.32;2.17;;;;;;;;;;5048826;28;20028;-74
2023/07/11 02:44:11;;;;;;;8.02;2.95;;;;;;;;;;5062737;28;20136;-74
2023/07/11 02:46:37;;;;;;;8.50;2.00;;;;;;;;;;5060040;28;20040;-74
2023/07/11 02:49:02;;;;;;;5.68;2.55;;;15.60;99.90;;;;;;5060415;28;20080;-74
2023/07/11 02:51:29;;;;;;;9.30;3.63;;;15.80;99.90;;;;;;5060743;28;20414;-73
2023/07/11 02:53:55;;;;;;;5.15;2.10;;;15.80;99.90;;;;;;5045306;28;20094;-74
2023/07/11 02:56:21;;;;;;;6.85;2.22;;;15.90;99.90;;;;;;5064442;28;20040;-74
2023/07/11 02:58:47;;;;;;;7.70;2.30;;;;;;;;;;5042924;28;20067;-74
2023/07/11 03:01:14;;;;;;;6.20;2.25;;;15.80;99.90;;;;;;5064188;28;20112;-74
2023/07/11 03:03:40;;;;;;;9.15;2.63;;;;;;;;;;5041726;28;20554;-74
2023/07/11 03:06:05;;;;;;;5.93;2.20;;;15.70;99.90;;;;;;5041585;28;20045;-74
2023/07/11 03:08:32;;;;;;;6.15;1.95;;;15.80;99.90;;;;;;5041891;28;20051;-74
2023/07/11 03:10:59;;;;;;;6.53;2.58;;;15.60;99.90;;;;;;5044377;28;20145;-74
2023/07/11 03:13:25;;;;;;;4.60;2.47;;;;;;;;;;5038383;28;20060;-74
2023/07/11 03:15:50;;;;;;;6.65;2.85;;;15.70;99.90;;;;;;5065566;28;20414;-74
2023/07/11 03:18:16;;;;;;;5.82;2.92;;;15.90;99.90;;;;;;5043193;28;20045;-74
2023/07/11 03:20:42;;;;;;;7.20;2.53;;;16.00;99.90;;;;;;5045753;28;20044;-74
2023/07/11 03:23:10;;;;;;;5.25;2.85;;;15.90;99.90;;;;;;5042079;28;20127;-73
2023/07/11 03:25:36;;;;;;;4.70;2.55;;;15.90;99.90;;;;;;5061335;28;20506;-74
2023/07/11 03:28:02;;;;;;;6.38;2.88;;;;;;;;;;5044839;28;20047;-74
2023/07/11 03:30:28;;;;;;;10.32;3.00;;;;;;;;;;5041675;28;20504;-74
2023/07/11 03:32:54;;;;;;;8.90;3.60;;;;;;;;;;5037160;28;20081;-73
2023/07/11 03:35:20;;;;;;;5.95;3.38;;;;;;;;;;5066115;28;20142;-73
2023/07/11 03:37:46;;;;;;;8.30;3.45;;;16.50;99.90;;;;;;5036642;28;20048;-73
2023/07/11 03:40:12;;;;;;;7.68;3.63;;;;;;;;;;5061478;28;20466;-73
2023/07/11 03:42:38;;;;;;;9.57;3.65;;;;;;;;;;5022264;28;20044;-74
2023/07/11 03:45:04;;;;;;;4.93;3.20;;;16.30;99.90;;;;;;5044056;28;20044;-73
2023/07/11 03:47:30;;;;;;;8.63;3.08;;;;;;;;;;5040954;28;20087;-73
2023/07/11 03:49:56;;;;;;;10.63;3.50;;;;;;;;;;5065779;28;20075;-73
2023/07/11 03:52:22;;;;;;;8.35;4.15;;;;;;;;;;5053934;28;20044;-73
2023/07/11 03:54:48;;;;;;;7.13;3.47;;;;;;;;;;5031749;28;20518;-73
2023/07/11 03:57:14;;;;;;;6.78;4.15;;;;;;;;;;5035787;28;20052;-73
2023/07/11 03:59:40;;;;;;;8.40;3.78;;;;;;;;;;5040729;28;20048;-73
2023/07/11 04:02:06;;;;;;;8.35;3.78;;;;;;;;;;5044578;28;20075;-73
2023/07/11 04:04:31;;;;;;;9.55;3.80;;;16.10;99.90;;;;;;5055606;28;20041;-73
2023/07/11 04:06:57;;;;;;;8.25;3.33;;;;;;;;;;5059105;28;20040;-74
2023/07/11 04:09:23;;;;;;;9.98;4.13;;;;;;;;;;5060707;28;20048;-74
2023/07/11 04:11:49;;;;;;;8.68;3.85;;;16.00;99.90;;;;;;5044941;28;20052;-74
2023/07/11 04:14:15;;;;;;;5.53;3.83;;;;;;;;;;5048270;28;20052;-73
2023/07/11 04:16:41;;;;;;;7.13;3.42;;;;;;;;;;5064030;28;20050;-74
2023/07/11 04:19:07;;;;;;;12.30;4.38;;;;;;;;;;5041401;28;20042;-73
2023/07/11 04:21:33;;;;;;;7.38;3.95;;;;;;;;;;5057127;28;20094;-74
2023/07/11 04:24:00;;;;;;;6.40;3.22;;;16.20;99.90;;;;;;5042514;28;20568;-74
2023/07/11 04:26:26;;;;;;;8.38;3.95;;;;;;;;;;5038305;28;20132;-74
2023/07/11 04:28:52;;;;;;;5.75;3.40;;;;;;;;;;5058903;28;20553;-73
2023/07/11 04:31:17;;;;;;;9.57;3.33;;;16.10;99.90;;;;;;5041837;28;20133;-74
2023/07/11 04:33:43;;;;;;;8.00;3.97;;;;;;;;;;5055809;28;20048;-73
2023/07/11 04:36:13;;;;;;;7.65;4.43;;;16.40;99.90;;;;;;5053458;28;20055;-73
2023/07/11 04:38:39;;;;;;;8.80;4.15;;;;;;;;;;5056134;28;20041;-74
2023/07/11 04:41:06;;;;;;;7.80;3.92;;;16.40;99.90;;;;;;5061826;28;20115;-73
2023/07/11 04:43:33;;;;;;;8.93;4.22;;;16.60;99.90;;;;;;5058414;28;20106;-73
2023/07/11 04:46:00;;;;;;;7.82;4.43;;;16.30;99.90;;;;;;5061755;28;20037;-73
2023/07/11 04:48:27;;;;;;;8.13;4.60;;;;;;;;;;5044208;28;20045;-73
2023/07/11 04:51:08;;;;;;;7.00;4.20;;;16.70;99.90;;;;;;5039531;28;20093;-73
2023/07/11 04:53:34;;;;;;;9.45;3.90;;;16.80;99.90;;;;;;5059619;28;20052;-73
2023/07/11 04:56:04;;;;;;;9.98;4.13;;;16.90;99.90;;;;;;5042559;28;20090;-73
2023/07/11 04:58:31;;;;;;;7.95;4.22;;;17.00;99.90;;;;;;5064510;28;20387;-73
2023/07/11 05:01:04;;;;;;;8.13;4.72;;;17.30;99.90;;;;;;5051647;28;20473;-73
2023/07/11 05:03:30;;;;;;;10.98;4.90;;;17.50;99.90;;;;;;5061551;28;20083;-74
2023/07/11 05:05:56;;;;;;;7.60;4.25;;;;;;;;;;5034019;28;20072;-74
2023/07/11 05:08:22;;;;;;;8.32;4.20;;;17.90;99.90;;;;;;5057708;28;20070;-74
2023/07/11 05:10:58;;;;;;;8.88;5.30;;;17.60;99.90;;;;;;5035608;28;20078;-73
2023/07/11 05:13:24;;;;;;;13.57;4.60;;;;;;;;;;5050963;28;20067;-74
2023/07/11 05:15:50;;;;;;;7.35;4.38;;;18.00;99.90;;;;;;5065580;28;20123;-74
2023/07/11 05:18:18;;;;;;;9.85;4.50;;;18.20;99.90;;;;;;5036577;28;20058;-74
2023/07/11 05:20:44;;;;;;;6.45;4.40;;;;;;;;;;5019588;28;20402;-73
2023/07/11 05:23:10;;;;;;;10.43;4.13;;;;;;;;;;5036431;28;20044;-74
2023/07/11 05:25:37;;;;;;;11.02;5.32;;;18.80;99.90;;;;;;5042652;28;20095;-74
2023/07/11 05:28:03;;;;;;;10.10;4.93;;;19.20;99.90;;;;;;5060822;28;20032;-74
2023/07/11 05:30:29;;;;;;;10.43;4.60;;;;;;;;;;5039836;28;20485;-74
2023/07/11 05:32:55;;;;;;;9.02;5.15;;;;;;;;;;5042609;28;20440;-74
2023/07/11 05:35:21;;;;;;;8.13;4.28;;;19.70;99.90;;;;;;5025264;28;20041;-74
2023/07/11 05:37:47;;;;;;;11.13;4.97;;;;;;;;;;5050562;28;20143;-73
2023/07/11 05:40:13;;;;;;;8.65;4.22;;;;;;;;;;5041592;28;20079;-74
2023/07/11 05:42:38;;;;;;;11.70;4.30;;;20.70;99.90;;;;;;5024382;28;20080;-74
2023/07/11 05:45:04;;;;;;;9.88;4.57;;;21.20;99.90;;;;;;5059681;28;20051;-74
2023/07/11 05:47:30;;;;;;;6.70;3.78;;;;;;;;;;5033294;28;20078;-74
2023/07/11 05:49:56;;;;;;;8.10;3.30;;;22.00;99.90;;;;;;5038321;28;20074;-74
2023/07/11 05:52:21;;;;;;;10.27;3.42;;;22.20;99.90;;;;;;5056825;28;20052;-74
2023/07/11 05:54:47;;;;;;;13.30;4.03;;;22.50;99.90;;;;;;5052925;28;20047;-74
2023/07/11 05:57:12;;;;;;;7.97;3.47;;;22.60;99.90;;;;;;5056429;28;20510;-74
2023/07/11 05:59:38;;;;;;;5.72;3.20;;;23.00;99.90;;;;;;5041003;28;20058;-74
2023/07/11 06:02:04;;;;;;;8.90;4.18;;;24.20;99.90;;;;;;5058391;28;20143;-74
2023/07/11 06:04:30;;;;;;;7.95;3.50;;;23.80;99.90;;;;;;5061561;28;20211;-78
2023/07/11 06:06:55;;;;;;;5.78;3.25;;;24.20;99.90;;;;;;5062541;28;20044;-80
2023/07/11 06:09:21;;;;;;;6.13;3.17;;;24.50;99.90;;;;;;5041276;28;20518;-79
2023/07/11 06:11:48;;;;;;;7.40;3.40;;;26.40;99.90;;;;;;5058705;28;20485;-77
2023/07/11 06:14:16;;;;;;;9.10;2.97;;;24.80;99.90;;;;;;5034885;28;20526;-78
2023/07/11 06:16:42;;;;;;;7.93;3.00;;;24.90;99.90;;;;;;5038090;28;20064;-78
2023/07/11 06:19:09;;;;;;;6.72;3.20;;;25.10;99.90;;;;;;5055760;28;20056;-76
2023/07/11 06:21:34;;;;;;;7.78;3.25;;;26.10;99.90;;;;;;5046828;28;20040;-74
2023/07/11 06:24:00;;;;;;;8.77;4.20;;;24.30;99.90;;;;;;5057890;28;20041;-77
2023/07/11 06:26:26;;;;;;;9.25;3.67;;;25.70;99.90;;;;;;5049535;28;20041;-77
2023/07/11 06:28:51;;;;;;;6.72;3.40;;;23.50;99.90;;;;;;5035386;28;20045;-78
2023/07/11 06:31:17;;;;;;;6.75;3.55;;;23.20;99.90;;;;;;5050934;28;20106;-75
2023/07/11 06:33:43;;;;;;;10.63;3.65;;;22.80;99.90;;;;;;5041893;28;20518;-75
2023/07/11 06:36:09;;;;;;;7.80;3.25;;;24.10;99.90;;;;;;5063263;28;20182;-74
2023/07/11 06:38:35;;;;;;;7.97;2.88;;;23.60;99.90;;;;;;5040869;28;20040;-75
2023/07/11 06:41:01;;;;;;;10.98;3.47;;;24.10;99.90;;;;;;5058737;28;20044;-75
2023/07/11 06:43:27;;;;;;;9.52;3.30;;;24.30;99.90;;;;;;5039138;28;20036;-74
2023/07/11 06:45:54;;;;;;;5.68;2.78;;;24.20;99.90;;;;;;5061791;28;20041;-74
2023/07/11 06:48:21;;;;;;;12.20;4.65;;;23.50;99.90;;;;;;5058235;28;20818;-73
2023/07/11 06:50:50;;;;;;;7.60;3.40;;;23.40;99.90;;;;;;5042396;28;20147;-72
2023/07/11 06:53:16;;;;;;;10.02;3.75;;;23.20;99.90;;;;;;5054494;28;20127;-72
2023/07/11 06:55:50;;;;;;;8.05;3.85;;;23.00;99.90;;;;;;5039613;28;20127;-78
2023/07/11 06:58:16;;;;;;;10.93;3.37;;;23.90;99.90;;;;;;5046491;28;20048;-74
2023/07/11 07:00:42;;;;;;;9.85;3.70;;;22.60;99.90;;;;;;5042775;28;20433;-77
2023/07/11 07:03:14;;;;;;;8.77;3.20;;;22.70;99.90;;;;;;5054433;28;20474;-71
2023/07/11 07:05:50;;;;;;;7.93;3.00;;;22.30;99.90;;;;;;5039351;28;20475;-71
2023/07/11 07:08:16;;;;;;;11.13;3.80;;;22.20;99.90;;;;;;5056241;28;20063;-71
2023/07/11 07:10:43;;;;;;;6.40;3.47;;;22.50;99.90;;;;;;5044239;28;20048;-72
2023/07/11 07:13:08;;;;;;;7.75;3.30;;;22.60;99.90;;;;;;5059321;28;20473;-72
2023/07/11 07:15:34;;;;;;;10.52;4.30;;;22.50;99.90;;;;;;5060692;28;20041;-72
2023/07/11 07:17:59;;;;;;;5.75;3.20;;;22.50;99.90;;;;;;5063846;28;20410;-72
2023/07/11 07:20:25;;;;;;;5.97;3.05;;;22.60;99.90;;;;;;5046404;28;20045;-72
2023/07/11 07:22:50;;;;;;;9.43;3.30;;;24.10;99.90;;;;;;5037045;28;20041;-72
2023/07/11 07:25:16;;;;;;;6.85;3.03;;;22.60;99.90;;;;;;5035145;28;20048;-72
2023/07/11 07:27:41;;;;;;;8.50;4.05;;;23.20;99.90;;;;;;5038879;28;20037;-72
2023/07/11 07:30:08;;;;;;;10.80;3.53;;;22.40;99.90;;;;;;5062251;28;20032;-72
2023/07/11 07:32:35;;;;;;;8.95;3.65;;;22.30;99.90;;;;;;5057513;28;20045;-72
2023/07/11 07:35:00;;;;;;;10.50;3.55;;;22.40;99.90;;;;;;5065070;28;20044;-71
2023/07/11 07:37:26;;;;;;;5.38;3.50;;;22.20;99.90;;;;;;5046875;28;20055;-72
2023/07/11 07:39:51;;;;;;;8.50;3.50;;;22.30;99.90;;;;;;5050896;28;20044;-71
2023/07/11 07:42:17;;;;;;;7.93;3.72;;;22.30;99.90;;;;;;5057911;28;20036;-71
2023/07/11 07:44:42;;;;;;;10.15;3.17;;;22.50;99.90;;;;;;5046927;28;20047;-72
2023/07/11 07:47:08;;;;;;;5.63;3.13;;;23.90;99.90;;;;;;5055272;28;20037;-72
2023/07/11 07:49:34;;;;;;;7.03;3.33;;;22.40;99.90;;;;;;5038355;28;20246;-72
2023/07/11 07:51:59;;;;;;;9.82;3.42;;;22.70;99.90;;;;;;5054315;28;20056;-72
2023/07/11 07:54:26;;;;;;;9.75;2.92;;;22.50;99.90;;;;;;5042889;28;20059;-72
2023/07/11 07:56:52;;;;;;;8.48;3.83;;;22.40;99.90;;;;;;5036047;28;20528;-72
2023/07/11 07:59:18;;;;;;;6.80;2.85;;;23.40;99.90;;;;;;5041719;28;20410;-72
2023/07/11 08:01:45;;;;;;;10.25;3.33;;;22.50;99.90;;;;;;5032065;28;20041;-71
2023/07/11 08:04:10;;;;;;;7.63;3.28;;;22.60;99.90;;;;;;5036909;28;20041;-72
2023/07/11 08:06:36;;;;;;;6.35;2.40;;;22.70;99.90;;;;;;5052993;28;20041;-72
2023/07/11 08:09:02;;;;;;;6.82;2.60;;;22.50;99.90;;;;;;5036250;28;20410;-71
2023/07/11 08:11:27;;;;;;;8.50;2.90;;;22.70;99.90;;;;;;5052964;28;20040;-72
2023/07/11 08:13:54;;;;;;;6.03;2.90;;;22.90;99.90;;;;;;5058441;28;20045;-72
2023/07/11 08:16:19;;;;;;;6.72;2.47;;;22.90;99.90;;;;;;5058112;28;20053;-72
2023/07/11 08:18:45;;;;;;;6.38;2.17;;;24.40;99.90;;;;;;5035490;28;20098;-72
2023/07/11 08:21:11;;;;;;;5.95;2.55;;;23.00;99.90;;;;;;5039718;28;20044;-72
2023/07/11 08:23:36;;;;;;;5.95;2.30;;;23.30;99.90;;;;;;5035740;28;20109;-72
2023/07/11 08:26:02;;;;;;;4.90;2.25;;;23.50;99.90;;;;;;5053688;28;20036;-72
2023/07/11 08:28:27;;;;;;;5.30;1.90;;;23.60;99.90;;;;;;5040490;28;20055;-72
2023/07/11 08:30:53;;;;;;;7.47;2.08;;;23.70;99.90;;;;;;5042426;28;20045;-72
2023/07/11 08:33:18;;;;;;;5.95;2.00;;;23.60;99.90;;;;;;5043592;28;20413;-72
2023/07/11 08:35:44;;;;;;;4.72;1.60;;;23.80;99.90;;;;;;5060852;28;20162;-72
2023/07/11 08:38:12;;;;;;;5.70;2.03;;;24.80;99.90;;;;;;5042375;28;20044;-71
2023/07/11 08:40:44;;;;;;;4.88;1.25;;;23.90;99.90;;;;;;5062041;28;20068;-72
2023/07/11 08:43:16;;;;;;;5.13;1.48;;;25.60;99.90;;;;;;5064259;28;20589;-71
2023/07/11 08:45:54;;;;;;;5.03;1.33;;;24.20;99.90;;;;;;5031429;28;20040;-72
2023/07/11 08:48:32;;;;;;;3.92;1.13;;;24.40;99.90;;;;;;5052914;28;20041;-72
2023/07/11 08:51:09;;;;;;;5.75;1.77;;;24.20;99.90;;;;;;5039783;28;20048;-72
2023/07/11 08:53:50;;;;;;;5.75;1.80;;;24.30;99.90;;;;;;5093515;27;20118;-71
2023/07/11 08:56:22;;;;;;;3.47;1.50;;;24.30;99.90;;;;;;5079017;28;20040;-71
2023/07/11 08:58:49;;;;;;;4.53;1.30;;;24.60;99.90;;;;;;5056743;28;20051;-71
2023/07/11 09:01:35;;;;;;;8.52;1.85;;;24.60;99.90;;;;;;5080191;28;20036;-71
2023/07/11 09:04:01;;;;;;;4.55;1.35;;;24.70;99.90;;;;;;5056838;28;20048;-71
2023/07/11 09:06:37;;;;;;;4.22;1.65;;;24.40;99.90;;;;;;5057294;28;20080;-71
2023/07/11 09:09:04;;;;;;;5.05;1.73;;;24.90;99.90;;;;;;5065158;28;20045;-71
2023/07/11 09:12:06;;;;;;;7.90;1.52;;;24.60;99.90;;;;;;5077757;28;20055;-71
2023/07/11 09:14:49;;;;;;;5.38;1.60;;;24.80;99.90;;;;;;5052353;28;20040;-71
2023/07/11 09:17:49;;;;;;;3.75;1.42;;;24.90;99.90;;;;;;5073087;28;20064;-71
2023/07/11 09:20:44;;;;;;;2.75;1.20;;;25.10;99.90;;;;;;5046594;28;20036;-70
2023/07/11 09:23:15;;;;;;;5.47;1.60;;;24.90;99.90;;;;;;5055927;28;20053;-76
2023/07/11 09:25:43;;;;;;;5.65;1.08;;;26.50;99.90;;;;;;5052422;28;20555;-75
2023/07/11 09:28:20;;;;;;;6.40;1.45;;;26.80;99.90;;;;;;5053842;28;20044;-76
2023/07/11 09:30:54;;;;;;;6.00;1.88;;;25.20;99.90;;;;;;5074485;28;20524;-77
2023/07/11 09:33:30;;;;;;;5.53;1.42;;;25.10;99.90;;;;;;5063557;28;20040;-75
2023/07/11 09:35:56;;;;;;;5.05;1.15;;;25.20;99.90;;;;;;5061804;28;20082;-74
2023/07/11 09:38:34;;;;;;;4.53;1.10;;;26.50;99.90;;;;;;5076559;28;20039;-74
2023/07/11 09:41:13;;;;;;;5.93;1.77;;;25.10;99.90;;;;;;5074946;28;20115;-71
2023/07/11 09:43:38;;;;;;;5.10;1.55;;;25.30;99.90;;;;;;5067771;28;20052;-72
2023/07/11 09:46:20;;;;;;;5.47;1.40;;;25.40;99.90;;;;;;5072900;28;20042;-72
2023/07/11 09:48:50;;;;;;;8.05;1.98;;;25.30;99.90;;;;;;5054805;28;20041;-76
2023/07/11 09:51:54;;;;;;;6.97;1.15;;;25.30;99.90;;;;;;5075791;28;20036;-70
2023/07/11 09:54:25;;;;;;;6.78;1.40;;;25.20;99.90;;;;;;4978787;28;20483;-74
2023/07/11 09:56:51;;;;;;;5.85;1.02;;;25.80;99.90;;;;;;5038353;28;20507;-75
2023/07/11 09:59:18;;;;;;;2.88;1.30;;;26.80;99.90;;;;;;5069689;28;20052;-71
2023/07/11 10:01:44;;;;;;;7.05;1.52;;;25.40;99.90;;;;;;5072266;28;20044;-73
2023/07/11 10:04:16;;;;;;;4.10;1.10;;;27.50;99.90;;;;;;5065025;28;20040;-74
2023/07/11 10:06:52;;;;;;;6.18;1.40;;;25.70;99.90;;;;;;5055003;28;20041;-73
2023/07/11 10:09:22;;;;;;;6.90;1.70;;;25.80;99.90;;;;;;5038348;28;20094;-73
2023/07/11 10:11:52;;;;;;;8.73;1.75;;;26.10;99.90;;;;;;5040841;28;20045;-75
2023/07/11 10:14:21;;;;;;;7.13;1.38;;;25.90;99.90;;;;;;5055546;28;20102;-74
2023/07/11 10:16:47;;;;;;;5.32;1.63;;;26.20;99.90;;;;;;5059953;28;20048;-73
2023/07/11 10:19:17;;;;;;;6.22;1.35;;;26.20;99.90;;;;;;5059260;28;20052;-72
2023/07/11 10:21:51;;;;;;;4.07;1.27;;;26.80;99.90;;;;;;5038834;28;20084;-72
2023/07/11 10:24:21;;;;;;;8.43;1.65;;;27.80;99.90;;;;;;5038895;28;20048;-72
2023/07/11 10:26:49;;;;;;;6.82;1.27;;;26.20;99.90;;;;;;5041630;28;20049;-72
2023/07/11 10:29:18;;;;;;;8.98;1.52;;;26.50;99.90;;;;;;5053847;28;20044;-72
2023/07/11 10:31:56;;;;;;;5.68;1.02;;;26.40;99.90;;;;;;5055759;28;20090;-72
2023/07/11 10:34:25;;;;;;;5.95;1.65;;;26.40;99.90;;;;;;5041857;28;20050;-73
2023/07/11 10:36:53;;;;;;;5.60;0.82;;;26.90;99.90;;;;;;5056811;28;20595;-73
2023/07/11 10:39:36;;;;;;;7.55;1.67;;;27.70;99.90;;;;;;5035857;28;20059;-73
2023/07/11 10:42:23;;;;;;;4.68;1.30;;;26.30;99.90;;;;;;5027465;28;20041;-73
2023/07/11 10:44:57;;;;;;;6.05;1.23;;;26.50;99.90;;;;;;5038449;28;20139;-73
2023/07/11 10:47:31;;;;;;;3.77;1.17;;;26.50;99.90;;;;;;5039537;28;20059;-72
2023/07/11 10:49:58;;;;;;;4.88;1.25;;;27.00;99.90;;;;;;5052113;28;20099;-72
2023/07/11 10:52:26;;;;;;;8.93;1.50;;;26.50;99.90;;;;;;5057667;28;20105;-72
2023/07/11 10:55:09;;;;;;;8.18;2.03;;;26.60;99.90;;;;;;5038754;28;20055;-72
2023/07/11 10:57:39;;;;;;;4.78;1.10;;;26.80;99.90;;;;;;5030301;28;20120;-73
2023/07/11 11:00:16;;;;;;;5.30;1.10;;;28.90;99.90;;;;;;5043836;28;20083;-73
2023/07/11 11:03:06;;;;;;;6.80;2.70;;;26.90;99.90;;;;;;5051728;28;20056;-72
2023/07/11 11:05:46;;;;;;;3.95;1.40;;;27.10;99.90;;;;;;5022863;28;20145;-72
2023/07/11 11:08:25;;;;;;;3.40;1.15;;;26.80;99.90;;;;;;5058254;28;20048;-72
2023/07/11 11:10:55;;;;;;;9.70;1.45;;;27.10;99.90;;;;;;5041771;28;20052;-71
2023/07/11 11:13:23;;;;;;;5.32;1.23;;;28.60;99.90;;;;;;5032044;28;20048;-72
2023/07/11 11:16:12;;;;;;;6.63;1.35;;;26.90;99.90;;;;;;5057825;28;20109;-72
2023/07/11 11:18:49;;;;;;;5.57;1.60;;;26.60;99.90;;;;;;5047523;28;20060;-72
2023/07/11 11:21:53;;;;;;;5.18;1.92;;;26.70;99.90;;;;;;5028443;28;20041;-72
2023/07/11 11:24:28;;;;;;;3.97;1.23;;;26.90;99.90;;;;;;5029395;28;20502;-69
2023/07/11 11:26:57;;;;;;;;;;;26.80;99.90;;;;;;5041114;28;20076;-69
2023/07/11 11:29:34;;;;;;;19.08;2.17;;;26.90;99.90;;;;;;5007551;28;19920;-69
2023/07/11 11:32:13;;;;;;;7.95;1.42;;;28.20;99.90;;;;;;5041440;28;20056;-70
2023/07/11 11:34:56;;;;;;;2.72;1.10;;;26.80;99.90;;;;;;5038528;28;20782;-69
2023/07/11 11:37:40;;;;;;;3.80;1.23;;;27.00;99.90;;;;;;5061018;28;20093;-69
2023/07/11 11:40:17;;;;;;;4.88;1.35;;;28.20;99.90;;;;;;5064862;28;20043;-70
2023/07/11 11:42:45;;;;;;;32.30;3.83;;;26.90;99.90;;;;;;5046770;28;20059;-69
2023/07/11 11:45:21;;;;;;;3.35;1.00;;;26.60;99.90;;;;;;5055083;28;20410;-69
2023/07/11 11:47:48;;;;;;;3.08;1.23;;;28.50;99.90;;;;;;5059001;28;20059;-69
2023/07/11 11:50:17;;;;;;;6.53;1.52;;;27.50;99.90;;;;;;5040265;28;20049;-69
2023/07/11 11:52:44;;;;;;;4.22;1.23;;;28.70;99.90;;;;;;5059813;28;20088;-69
2023/07/11 11:55:31;;;;;;;4.53;1.50;;;28.80;99.90;;;;;;5055876;28;20048;-72
2023/07/11 11:57:57;;;;;;;8.60;1.40;;;27.30;99.90;;;;;;5039050;28;20052;-70
2023/07/11 12:00:50;;;;;;;5.43;1.45;;;27.20;99.90;;;;;;5058044;28;20032;-70
2023/07/11 12:03:23;;;;;;;6.05;1.63;;;27.10;99.90;;;;;;5054074;28;20048;-70
2023/07/11 12:05:50;;;;;;;5.95;1.58;;;27.00;99.90;;;;;;5040103;28;20055;-70
2023/07/11 12:08:27;;;;;;;8.52;1.33;;;27.00;99.90;;;;;;5045761;28;20056;-70
2023/07/11 12:11:08;;;;;;;6.65;1.27;;;28.50;99.90;;;;;;5051550;28;20044;-70
2023/07/11 12:13:36;;;;;;;5.47;1.67;;;27.30;99.90;;;;;;5036264;28;20049;-70
2023/07/11 12:16:07;;;;;;;6.55;2.00;;;27.50;99.90;;;;;;5047860;28;20036;-69
2023/07/11 12:18:38;;;;;;;10.27;2.80;;;27.00;99.90;;;;;;5052682;28;20052;-70
2023/07/11 12:21:05;;;;;;;8.15;2.00;;;27.30;99.90;;;;;;5031687;28;20048;-71
2023/07/11 12:23:32;;;;;;;10.98;2.00;;;28.20;99.90;;;;;;5038118;28;20057;-71
2023/07/11 12:26:15;;;;;;;8.35;2.50;;;27.10;99.90;;;;;;5056359;28;20142;-71
2023/07/11 12:28:41;;;;;;;5.65;1.35;;;27.20;99.90;;;;;;5046807;28;20212;-70
2023/07/11 12:31:24;;;;;;;4.40;1.88;;;27.60;99.90;;;;;;5057909;28;20044;-71
2023/07/11 12:34:00;;;;;;;4.38;1.73;;;28.40;99.90;;;;;;5047900;28;20699;-71
2023/07/11 12:36:45;;;;;;;6.20;1.77;;;27.20;99.90;;;;;;5043876;28;20041;-71
2023/07/11 12:39:23;;;;;;;5.63;2.00;;;27.10;99.90;;;;;;5055735;28;20044;-71
2023/07/11 12:42:13;;;;;;;5.00;1.83;;;27.10;99.90;;;;;;5046892;28;20669;-69
2023/07/11 12:44:38;;;;;;;6.10;2.08;;;27.20;99.90;;;;;;5052095;28;20053;-69
2023/07/11 12:47:11;;;;;;;12.82;2.60;;;28.90;99.90;;;;;;5055365;28;20052;-69
2023/07/11 12:49:41;;;;;;;7.30;2.45;;;27.30;99.90;;;;;;5056025;28;20574;-70
2023/07/11 12:52:13;;;;;;;7.15;2.65;;;27.10;99.90;;;;;;5056255;28;20053;-70
2023/07/11 12:54:39;;;;;;;10.10;3.13;;;27.30;99.90;;;;;;5061375;28;20059;-72
2023/07/11 12:57:15;;;;;;;3.90;2.28;;;27.20;99.90;;;;;;5057595;28;20044;-69
2023/07/11 12:59:40;;;;;;;10.77;2.25;;;27.30;99.90;;;;;;5041176;28;20050;-69
2023/07/11 13:02:07;;;;;;;7.53;3.03;;;27.30;99.90;;;;;;5032075;28;20112;-69
2023/07/11 13:04:46;;;;;;;7.68;2.28;;;27.20;99.90;;;;;;5047555;28;20049;-69
2023/07/11 13:07:14;;;;;;;11.27;2.45;;;27.30;99.90;;;;;;5051869;28;20527;-71
2023/07/11 13:09:49;;;;;;;8.25;2.30;;;27.50;99.90;;;;;;5052057;28;20080;-71
2023/07/11 13:12:19;;;;;;;6.55;2.50;;;28.70;99.90;;;;;;5030811;28;20603;-68
2023/07/11 13:14:47;;;;;;;7.75;2.40;;;27.20;99.90;;;;;;5048142;28;20036;-70
2023/07/11 13:17:15;;;;;;;6.32;2.22;;;28.30;99.90;;;;;;5027128;28;20635;-70
2023/07/11 13:19:41;;;;;;;6.25;1.98;;;27.30;99.90;;;;;;5047559;28;20128;-70